createdAt,value
2023-02-02T00:01:50.263Z,7.44
2023-02-02T00:04:22.195Z,7.54
2023-02-02T00:06:49.418Z,7.36
2023-02-02T00:09:18.805Z,7.44
2023-02-02T00:11:48.276Z,7.52
2023-02-02T00:14:15.359Z,7.54
2023-02-02T00:16:48.857Z,7.77
2023-02-02T00:19:22.907Z,7.46
2023-02-02T00:21:49.892Z,7.23
2023-02-02T00:24:20.767Z,7.17
2023-02-02T00:26:54.221Z,6.97
2023-02-02T00:29:30.945Z,7.47
2023-02-02T00:31:58.029Z,7.49
2023-02-02T00:34:25.346Z,7.08
2023-02-02T00:36:52.449Z,7.42
2023-02-02T00:39:22.784Z,7.44
2023-02-02T00:41:49.718Z,7.20
2023-02-02T00:44:34.973Z,7.17
2023-02-02T00:47:02.544Z,7.13
2023-02-02T00:49:29.545Z,7.32
2023-02-02T00:51:56.384Z,7.32
2023-02-02T00:54:23.270Z,7.22
2023-02-02T00:56:50.152Z,7.23
2023-02-02T00:59:16.984Z,7.27
2023-02-02T01:01:43.837Z,6.91
2023-02-02T01:04:18.449Z,6.97
2023-02-02T01:06:45.221Z,7.27
2023-02-02T01:09:13.409Z,7.38
2023-02-02T01:11:40.294Z,7.21
2023-02-02T01:14:07.150Z,6.87
2023-02-02T01:16:34.214Z,6.89
2023-02-02T01:19:01.127Z,6.97
2023-02-02T01:21:28.060Z,6.95
2023-02-02T01:23:54.865Z,6.98
2023-02-02T01:26:21.768Z,7.04
2023-02-02T01:28:48.668Z,6.76
2023-02-02T01:31:18.735Z,6.68
2023-02-02T01:33:47.586Z,6.89
2023-02-02T01:36:18.611Z,6.78
2023-02-02T01:38:46.326Z,6.32
2023-02-02T01:41:17.801Z,6.89
2023-02-02T01:43:44.489Z,6.83
2023-02-02T01:46:36.261Z,6.83
2023-02-02T01:49:09.165Z,6.74
2023-02-02T01:51:48.381Z,7.00
2023-02-02T01:54:36.281Z,6.82
2023-02-02T01:57:11.794Z,6.68
2023-02-02T01:59:39.185Z,7.04
2023-02-02T02:02:06.643Z,7.12
2023-02-02T02:04:34.451Z,7.03
2023-02-02T02:07:02.890Z,6.96
2023-02-02T02:09:29.740Z,7.19
2023-02-02T02:11:56.892Z,6.78
2023-02-02T02:14:42.762Z,6.91
2023-02-02T02:17:37.832Z,7.47
2023-02-02T02:20:32.207Z,7.35
2023-02-02T02:23:33.607Z,7.42
2023-02-02T02:26:43.563Z,7.06
2023-02-02T02:29:25.312Z,6.99
2023-02-02T02:32:13.254Z,6.82
2023-02-02T02:35:02.154Z,6.89
2023-02-02T02:37:30.560Z,6.60
2023-02-02T02:40:13.948Z,6.99
2023-02-02T02:42:47.199Z,7.30
2023-02-02T02:45:14.868Z,7.07
2023-02-02T02:47:42.652Z,6.98
2023-02-02T02:50:10.900Z,7.03
2023-02-02T02:52:38.479Z,6.68
2023-02-02T02:55:07.495Z,6.42
2023-02-02T02:57:43.469Z,6.62
2023-02-02T03:00:27.681Z,6.87
2023-02-02T03:03:41.934Z,6.96
2023-02-02T03:06:17.894Z,6.63
2023-02-02T03:08:52.956Z,6.58
2023-02-02T03:11:20.853Z,6.94
2023-02-02T03:13:48.804Z,6.84
2023-02-02T03:16:16.466Z,6.70
2023-02-02T03:18:43.620Z,6.83
2023-02-02T03:21:10.540Z,6.83
2023-02-02T03:23:38.590Z,6.89
2023-02-02T03:26:05.886Z,6.49
2023-02-02T03:28:33.096Z,6.61
2023-02-02T03:31:03.976Z,6.69
2023-02-02T03:33:33.403Z,6.82
2023-02-02T03:36:00.260Z,7.13
2023-02-02T03:38:27.132Z,6.97
2023-02-02T03:40:53.999Z,6.99
2023-02-02T03:43:24.943Z,7.06
2023-02-02T03:46:01.137Z,6.73
2023-02-02T03:48:28.510Z,6.80
2023-02-02T03:50:55.447Z,6.87
2023-02-02T03:53:23.250Z,6.32
2023-02-02T03:55:50.097Z,6.22
2023-02-02T03:58:17.613Z,6.72
2023-02-02T04:00:44.497Z,6.29
2023-02-02T04:03:11.322Z,6.75
2023-02-02T04:05:38.151Z,6.63
2023-02-02T04:08:05.314Z,6.70
2023-02-02T04:10:32.158Z,6.77
2023-02-02T04:12:59.052Z,6.94
2023-02-02T04:15:26.182Z,6.59
2023-02-02T04:17:53.279Z,6.79
2023-02-02T04:20:20.218Z,6.88
2023-02-02T04:22:46.999Z,7.15
2023-02-02T04:25:13.915Z,6.91
2023-02-02T04:27:40.767Z,6.74
2023-02-02T04:30:08.983Z,6.85
2023-02-02T04:32:35.853Z,6.44
2023-02-02T04:35:02.670Z,6.35
2023-02-02T04:37:32.241Z,6.55
2023-02-02T04:39:59.175Z,6.36
2023-02-02T04:42:26.095Z,6.21
2023-02-02T04:44:52.928Z,6.55
2023-02-02T04:47:19.793Z,6.58
2023-02-02T04:49:46.650Z,6.33
2023-02-02T04:52:13.588Z,6.47
2023-02-02T04:54:40.452Z,6.69
2023-02-02T04:57:07.336Z,6.67
2023-02-02T04:59:34.187Z,6.65
2023-02-02T05:02:02.452Z,6.51
2023-02-02T05:04:29.381Z,6.67
2023-02-02T05:06:56.481Z,6.63
2023-02-02T05:09:23.379Z,6.57
2023-02-02T05:11:50.195Z,6.82
2023-02-02T05:14:18.468Z,6.66
2023-02-02T05:16:45.568Z,6.94
2023-02-02T05:19:12.907Z,6.44
2023-02-02T05:21:39.734Z,6.89
2023-02-02T05:24:06.836Z,6.95
2023-02-02T05:26:33.784Z,6.75
2023-02-02T05:29:00.592Z,6.94
2023-02-02T05:31:27.515Z,7.08
2023-02-02T05:33:54.495Z,6.95
2023-02-02T05:36:21.365Z,6.98
2023-02-02T05:38:48.247Z,6.82
2023-02-02T05:41:15.075Z,7.12
2023-02-02T05:43:41.982Z,7.17
2023-02-02T05:46:08.936Z,7.12
2023-02-02T05:48:35.791Z,7.08
2023-02-02T05:51:06.923Z,7.07
2023-02-02T05:53:33.735Z,7.12
2023-02-02T05:56:00.585Z,6.94
2023-02-02T05:58:29.595Z,7.25
2023-02-02T06:00:56.920Z,7.44
2023-02-02T06:03:24.417Z,6.83
2023-02-02T06:05:51.352Z,7.12
2023-02-02T06:08:18.144Z,7.31
2023-02-02T06:10:45.365Z,7.08
2023-02-02T06:13:12.293Z,7.00
2023-02-02T06:15:39.184Z,7.14
2023-02-02T06:18:08.257Z,7.36
2023-02-02T06:20:35.946Z,7.17
2023-02-02T06:23:02.977Z,7.41
2023-02-02T06:25:29.824Z,7.07
2023-02-02T06:27:58.546Z,7.16
2023-02-02T06:30:25.927Z,7.27
2023-02-02T06:32:53.009Z,7.49
2023-02-02T06:35:20.159Z,7.43
2023-02-02T06:37:47.085Z,7.37
2023-02-02T06:40:13.970Z,7.40
2023-02-02T06:42:41.050Z,7.41
2023-02-02T06:45:08.687Z,7.51
2023-02-02T06:47:35.523Z,7.46
2023-02-02T06:50:02.677Z,7.31
2023-02-02T06:52:29.623Z,7.57
2023-02-02T06:54:56.490Z,7.09
2023-02-02T06:57:23.309Z,7.66
2023-02-02T06:59:51.194Z,7.37
2023-02-02T07:02:18.076Z,7.07
2023-02-02T07:04:44.923Z,7.12
2023-02-02T07:07:11.705Z,7.27
2023-02-02T07:09:38.587Z,6.94
2023-02-02T07:12:05.986Z,7.01
2023-02-02T07:14:32.872Z,6.98
2023-02-02T07:16:59.652Z,7.07
2023-02-02T07:19:26.635Z,7.24
2023-02-02T07:21:53.450Z,7.22
2023-02-02T07:24:20.285Z,6.87
2023-02-02T07:26:47.139Z,7.24
2023-02-02T07:29:14.411Z,7.29
2023-02-02T07:31:41.793Z,7.28
2023-02-02T07:34:08.823Z,7.08
2023-02-02T07:36:36.265Z,7.39
2023-02-02T07:39:05.088Z,7.18
2023-02-02T07:41:34.743Z,7.27
2023-02-02T07:44:01.854Z,7.10
2023-02-02T07:46:28.690Z,7.09
2023-02-02T07:48:56.466Z,7.10
2023-02-02T07:51:24.870Z,7.12
2023-02-02T07:53:54.431Z,7.28
2023-02-02T07:56:25.026Z,7.28
2023-02-02T07:58:53.775Z,7.49
2023-02-02T08:01:23.027Z,7.63
2023-02-02T08:03:50.857Z,7.42
2023-02-02T08:06:26.106Z,7.20
2023-02-02T08:08:53.121Z,7.42
2023-02-02T08:11:22.499Z,7.25
2023-02-02T08:13:52.065Z,7.27
2023-02-02T08:16:19.749Z,7.37
2023-02-02T08:18:47.192Z,7.43
2023-02-02T08:21:14.691Z,7.18
2023-02-02T08:23:42.762Z,7.30
2023-02-02T08:26:14.224Z,7.36
2023-02-02T08:28:43.075Z,7.32
2023-02-02T08:31:17.999Z,7.88
2023-02-02T08:33:45.367Z,7.76
2023-02-02T08:36:18.093Z,7.50
2023-02-02T08:38:45.825Z,8.02
2023-02-02T08:41:16.973Z,7.69
2023-02-02T08:43:44.404Z,7.87
2023-02-02T08:46:14.898Z,7.69
2023-02-02T08:48:42.378Z,7.15
2023-02-02T08:51:12.702Z,7.69
2023-02-02T08:53:39.516Z,7.68
2023-02-02T08:56:19.948Z,7.95
2023-02-02T08:58:52.442Z,7.16
2023-02-02T09:01:29.136Z,7.59
2023-02-02T09:04:04.519Z,7.70
2023-02-02T09:06:39.335Z,7.78
2023-02-02T09:09:09.806Z,7.85
2023-02-02T09:11:37.445Z,8.17
2023-02-02T09:14:06.421Z,7.81
2023-02-02T09:16:35.132Z,8.09
2023-02-02T09:19:02.395Z,7.96
2023-02-02T09:21:29.300Z,8.01
2023-02-02T09:23:56.325Z,7.79
2023-02-02T09:26:30.213Z,7.78
2023-02-02T09:29:02.482Z,7.91
2023-02-02T09:31:33.893Z,8.04
2023-02-02T09:34:06.851Z,8.11
2023-02-02T09:36:34.613Z,7.89
2023-02-02T09:39:01.716Z,7.60
2023-02-02T09:41:43.258Z,7.92
2023-02-02T09:44:19.095Z,7.68
2023-02-02T09:47:45.870Z,7.66
2023-02-02T09:50:33.255Z,7.81
2023-02-02T09:53:14.184Z,7.85
2023-02-02T09:55:45.557Z,7.85
2023-02-02T09:58:19.655Z,7.77
2023-02-02T10:01:13.553Z,7.81
2023-02-02T10:04:14.330Z,7.64
2023-02-02T10:06:44.975Z,7.83
2023-02-02T10:09:33.243Z,7.80
2023-02-02T10:12:43.616Z,7.82
2023-02-02T10:15:17.830Z,7.96
2023-02-02T10:17:50.768Z,7.89
2023-02-02T10:20:46.306Z,8.03
2023-02-02T10:23:27.532Z,8.25
2023-02-02T10:26:00.069Z,8.09
2023-02-02T10:28:45.263Z,7.85
2023-02-02T10:31:28.491Z,8.16
2023-02-02T10:34:20.928Z,7.84
2023-02-02T10:37:00.183Z,7.59
2023-02-02T10:40:32.397Z,8.08
2023-02-02T10:43:47.226Z,8.10
2023-02-02T10:46:25.041Z,7.81
2023-02-02T10:49:35.914Z,7.92
2023-02-02T10:52:12.002Z,7.98
2023-02-02T10:54:58.407Z,8.09
2023-02-02T10:57:49.408Z,7.94
2023-02-02T11:00:22.708Z,7.84
2023-02-02T11:02:51.495Z,8.12
2023-02-02T11:05:47.890Z,7.92
2023-02-02T11:08:33.167Z,8.21
2023-02-02T11:11:32.467Z,8.20
2023-02-02T11:14:08.467Z,8.11
2023-02-02T11:16:43.235Z,7.81
2023-02-02T11:19:20.103Z,8.04
2023-02-02T11:21:56.637Z,8.39
2023-02-02T11:24:29.717Z,8.16
2023-02-02T11:27:02.932Z,8.42
2023-02-02T11:29:46.997Z,7.92
2023-02-02T11:32:34.347Z,8.43
2023-02-02T11:35:04.339Z,8.55
2023-02-02T11:37:33.752Z,8.62
2023-02-02T11:41:04.347Z,8.17
2023-02-02T11:43:35.101Z,7.63
2023-02-02T11:46:19.048Z,7.92
2023-02-02T11:48:56.764Z,8.01
2023-02-02T11:51:26.122Z,8.30
2023-02-02T11:54:06.595Z,7.92
2023-02-02T11:56:36.893Z,7.85
2023-02-02T11:59:04.212Z,7.76
2023-02-02T12:01:41.830Z,7.84
2023-02-02T12:04:17.796Z,7.61
2023-02-02T12:06:45.715Z,7.88
2023-02-02T12:09:16.189Z,8.00
2023-02-02T12:12:10.019Z,7.87
2023-02-02T12:15:02.725Z,8.01
2023-02-02T12:17:45.197Z,7.65
2023-02-02T12:20:44.994Z,8.19
2023-02-02T12:23:29.848Z,8.00
2023-02-02T12:26:15.391Z,7.79
2023-02-02T12:29:16.765Z,8.36
2023-02-02T12:32:17.253Z,8.15
2023-02-02T12:35:02.088Z,7.76
2023-02-02T12:37:28.842Z,8.14
2023-02-02T12:40:32.514Z,8.28
2023-02-02T12:43:23.945Z,8.18
2023-02-02T12:46:21.103Z,8.09
2023-02-02T12:49:15.232Z,8.21
2023-02-02T12:52:23.719Z,7.69
2023-02-02T12:55:25.741Z,7.90
2023-02-02T12:58:09.147Z,8.10
2023-02-02T13:01:06.614Z,8.27
2023-02-02T13:03:54.160Z,7.67
2023-02-02T13:07:02.414Z,7.90
2023-02-02T13:09:47.212Z,8.06
2023-02-02T13:12:17.133Z,8.15
2023-02-02T13:14:55.322Z,7.85
2023-02-02T13:18:07.358Z,8.08
2023-02-02T13:20:51.309Z,7.69
2023-02-02T13:23:28.557Z,7.77
2023-02-02T13:26:01.715Z,7.98
2023-02-02T13:28:37.252Z,8.03
2023-02-02T13:31:14.671Z,7.79
2023-02-02T13:33:44.719Z,8.18
2023-02-02T13:36:25.886Z,8.07
2023-02-02T13:39:08.187Z,7.80
2023-02-02T13:41:37.064Z,7.92
2023-02-02T13:44:15.051Z,7.79
2023-02-02T13:47:20.029Z,8.01
2023-02-02T13:49:54.015Z,8.00
2023-02-02T13:53:17.122Z,8.11
2023-02-02T13:56:02.630Z,8.00
2023-02-02T13:59:04.887Z,8.15
2023-02-02T14:01:32.595Z,7.71
2023-02-02T14:04:00.871Z,8.18
2023-02-02T14:06:30.841Z,7.92
2023-02-02T14:09:02.310Z,8.05
2023-02-02T14:11:39.152Z,7.86
2023-02-02T14:14:35.277Z,7.80
2023-02-02T14:17:34.273Z,7.92
2023-02-02T14:20:03.752Z,8.05
2023-02-02T14:22:48.298Z,7.96
2023-02-02T14:25:33.362Z,8.04
2023-02-02T14:28:03.834Z,7.91
2023-02-02T14:30:35.072Z,7.82
2023-02-02T14:33:20.644Z,8.05
2023-02-02T14:35:47.371Z,8.09
2023-02-02T14:38:52.859Z,8.10
2023-02-02T14:42:20.164Z,7.99
2023-02-02T14:45:12.702Z,7.90
2023-02-02T14:47:42.404Z,7.78
2023-02-02T14:50:27.103Z,8.10
2023-02-02T14:53:11.883Z,8.27
2023-02-02T14:55:58.731Z,8.04
2023-02-02T14:58:48.702Z,7.89
2023-02-02T15:01:22.898Z,7.94
2023-02-02T15:04:20.793Z,8.05
2023-02-02T15:06:52.485Z,7.71
2023-02-02T15:09:28.384Z,7.78
2023-02-02T15:12:06.573Z,7.69
2023-02-02T15:14:38.165Z,8.05
2023-02-02T15:18:08.044Z,7.99
2023-02-02T15:20:48.835Z,7.82
2023-02-02T15:23:31.629Z,7.98
2023-02-02T15:26:17.722Z,7.71
2023-02-02T15:28:54.848Z,7.92
2023-02-02T15:31:34.889Z,8.06
2023-02-02T15:34:10.079Z,7.94
2023-02-02T15:36:43.769Z,7.55
2023-02-02T15:39:41.729Z,7.78
2023-02-02T15:42:37.432Z,7.59
2023-02-02T15:45:05.771Z,7.60
2023-02-02T15:47:37.145Z,7.56
2023-02-02T15:50:20.607Z,7.41
2023-02-02T15:52:50.473Z,7.57
2023-02-02T15:55:34.968Z,7.59
2023-02-02T15:58:03.158Z,7.68
2023-02-02T16:00:38.069Z,7.35
2023-02-02T16:03:10.521Z,7.67
2023-02-02T16:05:37.249Z,7.59
2023-02-02T16:08:27.746Z,7.64
2023-02-02T16:11:11.072Z,7.91
2023-02-02T16:13:40.262Z,7.48
2023-02-02T16:16:41.133Z,7.73
2023-02-02T16:19:22.777Z,7.59
2023-02-02T16:22:06.349Z,7.54
2023-02-02T16:24:49.346Z,7.76
2023-02-02T16:27:23.407Z,7.64
2023-02-02T16:29:51.137Z,7.70
2023-02-02T16:32:40.165Z,7.64
2023-02-02T16:35:35.686Z,7.61
2023-02-02T16:38:36.237Z,7.70
2023-02-02T16:41:25.411Z,7.66
2023-02-02T16:43:54.694Z,7.67
2023-02-02T16:46:46.155Z,7.79
2023-02-02T16:49:22.408Z,7.93
2023-02-02T16:52:16.404Z,7.74
2023-02-02T16:54:52.759Z,7.42
2023-02-02T16:57:34.319Z,7.71
2023-02-02T17:00:07.003Z,7.73
2023-02-02T17:02:38.932Z,7.73
2023-02-02T17:05:06.126Z,7.76
2023-02-02T17:07:35.934Z,7.79
2023-02-02T17:10:17.126Z,8.04
2023-02-02T17:12:45.894Z,7.70
2023-02-02T17:15:18.812Z,7.76
2023-02-02T17:17:50.389Z,7.95
2023-02-02T17:20:18.780Z,7.75
2023-02-02T17:22:53.344Z,7.90
2023-02-02T17:25:28.945Z,7.73
2023-02-02T17:27:58.568Z,7.93
2023-02-02T17:30:26.413Z,7.76
2023-02-02T17:32:53.245Z,7.71
2023-02-02T17:35:27.081Z,7.64
2023-02-02T17:37:55.326Z,7.89
2023-02-02T17:40:24.229Z,7.62
2023-02-02T17:42:53.393Z,7.79
2023-02-02T17:45:33.937Z,7.59
2023-02-02T17:48:03.654Z,7.99
2023-02-02T17:50:32.711Z,7.85
2023-02-02T17:53:00.149Z,8.01
2023-02-02T17:55:36.102Z,7.97
2023-02-02T17:58:03.738Z,7.96
2023-02-02T18:00:31.608Z,7.90
2023-02-02T18:03:26.041Z,7.90
2023-02-02T18:05:53.151Z,7.88
2023-02-02T18:08:20.228Z,8.17
2023-02-02T18:10:47.138Z,8.05
2023-02-02T18:13:16.321Z,8.06
2023-02-02T18:15:43.966Z,7.97
2023-02-02T18:18:13.949Z,7.92
2023-02-02T18:20:45.689Z,8.10
2023-02-02T18:23:13.490Z,7.96
2023-02-02T18:25:40.547Z,7.87
2023-02-02T18:28:09.116Z,8.00
2023-02-02T18:30:39.005Z,7.71
2023-02-02T18:33:09.140Z,7.77
2023-02-02T18:35:41.463Z,7.88
2023-02-02T18:38:09.132Z,7.98
2023-02-02T18:40:36.196Z,7.91
2023-02-02T18:43:03.135Z,7.53
2023-02-02T18:45:30.117Z,7.87
2023-02-02T18:47:57.215Z,7.88
2023-02-02T18:50:24.375Z,7.58
2023-02-02T18:52:51.279Z,7.61
2023-02-02T18:55:18.202Z,7.78
2023-02-02T18:57:45.023Z,7.69
2023-02-02T19:00:12.702Z,7.76
2023-02-02T19:02:39.618Z,7.95
2023-02-02T19:05:26.758Z,8.02
2023-02-02T19:07:57.085Z,7.99
2023-02-02T19:10:26.984Z,7.65
2023-02-02T19:12:58.043Z,7.59
2023-02-02T19:15:26.780Z,7.65
2023-02-02T19:17:55.119Z,7.87
2023-02-02T19:20:30.422Z,7.62
2023-02-02T19:23:16.293Z,7.74
2023-02-02T19:25:50.763Z,7.99
2023-02-02T19:28:31.507Z,7.79
2023-02-02T19:31:02.325Z,7.83
2023-02-02T19:33:42.164Z,7.72
2023-02-02T19:36:14.348Z,7.69
2023-02-02T19:38:41.285Z,7.95
2023-02-02T19:41:25.756Z,7.85
2023-02-02T19:43:58.869Z,8.04
2023-02-02T19:46:27.959Z,7.64
2023-02-02T19:49:07.579Z,7.58
2023-02-02T19:51:52.576Z,7.55
2023-02-02T19:54:31.197Z,7.61
2023-02-02T19:57:11.466Z,7.76
2023-02-02T19:59:38.462Z,7.69
2023-02-02T20:02:52.301Z,7.50
2023-02-02T20:05:24.326Z,7.67
2023-02-02T20:08:24.845Z,7.75
2023-02-02T20:10:54.583Z,7.70
2023-02-02T20:13:47.715Z,7.73
2023-02-02T20:16:23.625Z,7.65
2023-02-02T20:18:55.664Z,7.65
2023-02-02T20:21:45.404Z,7.77
2023-02-02T20:24:19.442Z,7.61
2023-02-02T20:26:46.570Z,7.56
2023-02-02T20:29:28.187Z,7.50
2023-02-02T20:31:58.564Z,7.45
2023-02-02T20:34:33.749Z,7.77
2023-02-02T20:37:16.292Z,7.61
2023-02-02T20:39:55.708Z,7.70
2023-02-02T20:42:23.188Z,7.48
2023-02-02T20:44:50.802Z,7.49
2023-02-02T20:47:17.954Z,7.31
2023-02-02T20:49:45.316Z,7.61
2023-02-02T20:52:23.082Z,7.35
2023-02-02T20:54:51.479Z,7.70
2023-02-02T20:57:19.040Z,7.59
2023-02-02T20:59:45.910Z,7.88
2023-02-02T21:02:19.289Z,7.72
2023-02-02T21:04:48.645Z,7.70
2023-02-02T21:07:18.481Z,8.01
2023-02-02T21:09:48.194Z,8.06
2023-02-02T21:12:16.382Z,7.68
2023-02-02T21:14:45.089Z,7.98
2023-02-02T21:17:15.726Z,7.62
2023-02-02T21:19:43.765Z,7.50
2023-02-02T21:22:11.617Z,7.67
2023-02-02T21:24:38.681Z,7.61
2023-02-02T21:27:05.578Z,7.59
2023-02-02T21:29:33.215Z,7.70
2023-02-02T21:32:02.455Z,7.69
2023-02-02T21:34:31.006Z,7.83
2023-02-02T21:36:58.812Z,7.56
2023-02-02T21:39:37.371Z,7.90
2023-02-02T21:42:19.398Z,7.89
2023-02-02T21:44:56.205Z,7.70
2023-02-02T21:47:27.670Z,7.88
2023-02-02T21:50:15.189Z,7.69
2023-02-02T21:52:42.416Z,7.72
2023-02-02T21:55:35.887Z,7.68
2023-02-02T21:58:34.143Z,7.68
2023-02-02T22:01:28.778Z,7.99
2023-02-02T22:03:55.683Z,7.94
2023-02-02T22:06:35.128Z,7.86
2023-02-02T22:09:18.631Z,7.79
2023-02-02T22:11:54.942Z,7.84
2023-02-02T22:14:36.108Z,7.79
2023-02-02T22:17:14.222Z,7.98
2023-02-02T22:19:43.647Z,7.75
2023-02-02T22:22:18.455Z,7.53
2023-02-02T22:24:50.991Z,7.92
2023-02-02T22:27:23.728Z,8.07
2023-02-02T22:29:58.534Z,7.84
2023-02-02T22:32:25.452Z,7.81
2023-02-02T22:34:52.419Z,7.83
2023-02-02T22:37:19.275Z,7.85
2023-02-02T22:39:46.109Z,8.00
2023-02-02T22:42:12.980Z,7.86
2023-02-02T22:44:39.837Z,7.83
2023-02-02T22:47:06.821Z,7.87
2023-02-02T22:49:33.633Z,7.91
2023-02-02T22:52:00.497Z,7.62
2023-02-02T22:54:27.419Z,7.77
2023-02-02T22:56:54.241Z,7.60
2023-02-02T22:59:21.067Z,7.86
2023-02-02T23:01:47.908Z,7.48
2023-02-02T23:04:15.014Z,7.62
2023-02-02T23:06:42.152Z,7.60
2023-02-02T23:09:09.036Z,7.34
2023-02-02T23:11:35.858Z,7.60
2023-02-02T23:14:02.838Z,7.51
2023-02-02T23:16:29.771Z,7.57
2023-02-02T23:18:56.671Z,7.55
2023-02-02T23:21:23.500Z,7.64
2023-02-02T23:23:50.408Z,7.43
2023-02-02T23:26:17.311Z,7.47
2023-02-02T23:28:44.164Z,7.56
2023-02-02T23:31:11.086Z,7.69
2023-02-02T23:33:37.976Z,7.64
2023-02-02T23:36:05.285Z,7.87
2023-02-02T23:38:32.107Z,7.81
2023-02-02T23:41:00.340Z,7.64
2023-02-02T23:43:27.672Z,7.68
2023-02-02T23:45:55.187Z,7.81
2023-02-02T23:48:22.025Z,7.57
2023-02-02T23:50:48.906Z,7.74
2023-02-02T23:53:15.985Z,7.75
2023-02-02T23:55:45.624Z,7.65
2023-02-02T23:58:14.535Z,7.67
